TimeEST,TemperatureF,Dew PointF,Humidity,Sea Level PressureIn,VisibilityMPH,Wind Direction,Wind SpeedMPH,Gust SpeedMPH,PrecipitationIn,Events,Conditions,WindDirDegrees,DateUTC
12:53 AM,68.0,60.1,76,29.98,10.0,NW,10.4,-,N/A,,Scattered Clouds,310,2012-02-20 05:53:00
1:53 AM,68.0,59.0,73,29.97,10.0,WNW,13.8,-,N/A,,Partly Cloudy,300,2012-02-20 06:53:00
2:13 AM,68.0,60.8,78,29.97,9.0,NW,9.2,-,N/A,,Mostly Cloudy,310,2012-02-20 07:13:00
2:53 AM,66.9,57.9,73,29.97,10.0,NW,11.5,-,N/A,,Mostly Cloudy,320,2012-02-20 07:53:00
3:53 AM,66.9,55.9,68,29.97,10.0,NW,11.5,20.7,N/A,,Mostly Cloudy,310,2012-02-20 08:53:00
4:53 AM,66.0,55.0,68,29.99,10.0,NNW,6.9,-,N/A,,Mostly Cloudy,330,2012-02-20 09:53:00
5:53 AM,64.9,55.0,70,30.01,10.0,Variable,3.5,-,N/A,,Mostly Cloudy,0,2012-02-20 10:53:00
6:53 AM,64.0,54.0,70,30.03,10.0,NNW,4.6,-,N/A,,Mostly Cloudy,340,2012-02-20 11:53:00
7:38 AM,64.4,53.6,68,30.05,10.0,NNE,4.6,-,N/A,,Scattered Clouds,20,2012-02-20 12:38:00
7:53 AM,64.9,55.0,70,30.05,10.0,NNE,4.6,-,N/A,,Scattered Clouds,30,2012-02-20 12:53:00
8:53 AM,66.9,53.1,61,30.08,10.0,North,4.6,-,N/A,,Scattered Clouds,10,2012-02-20 13:53:00
9:53 AM,66.9,53.1,61,30.11,10.0,Variable,3.5,-,N/A,,Scattered Clouds,0,2012-02-20 14:53:00
10:53 AM,69.1,53.1,57,30.11,10.0,NE,5.8,-,N/A,,Scattered Clouds,40,2012-02-20 15:53:00
11:53 AM,71.1,53.1,53,30.11,10.0,NNW,6.9,-,N/A,,Clear,340,2012-02-20 16:53:00
12:53 PM,72.0,52.0,49,30.09,10.0,Variable,3.5,-,N/A,,Clear,0,2012-02-20 17:53:00
1:53 PM,75.0,51.1,43,30.07,10.0,NNE,5.8,-,N/A,,Clear,20,2012-02-20 18:53:00
2:53 PM,75.9,51.1,42,30.06,10.0,NE,10.4,-,N/A,,Clear,50,2012-02-20 19:53:00
3:53 PM,72.0,55.9,57,30.06,10.0,West,10.4,-,N/A,,Clear,280,2012-02-20 20:53:00
4:53 PM,75.9,51.1,42,30.06,10.0,NNE,9.2,-,N/A,,Clear,30,2012-02-20 21:53:00
5:53 PM,73.0,50.0,44,30.08,10.0,ENE,10.4,-,N/A,,Clear,70,2012-02-20 22:53:00
6:53 PM,69.1,50.0,51,30.11,10.0,East,8.1,-,N/A,,Clear,80,2012-02-20 23:53:00
7:53 PM,66.9,51.1,57,30.13,10.0,ENE,8.1,-,N/A,,Clear,60,2012-02-21 00:53:00
8:53 PM,64.9,52.0,63,30.14,10.0,ENE,10.4,-,N/A,,Clear,60,2012-02-21 01:53:00
9:53 PM,63.0,53.1,70,30.16,10.0,ENE,9.2,-,N/A,,Clear,70,2012-02-21 02:53:00
10:53 PM,61.0,53.1,75,30.17,10.0,ENE,9.2,-,N/A,,Clear,60,2012-02-21 03:53:00
11:53 PM,60.1,53.1,78,30.17,10.0,ENE,8.1,-,N/A,,Clear,60,2012-02-21 04:53:00